Spang, Denmark
Current Conditions -  °F | °C
As of 4:51 PM on Friday 24 Oct 2014 (Local Time) from EKSB Reporting Station
Broken Clouds Broken Clouds  
Wind Chill: 55°   Ceiling: 3500
Heat Index: 55°   Visibility: 6mi
Dew Point: 48°   Wind: 10mph
Humidity: 77%   Direction: 180°S
Pressure: 30.03"   Gusts: NA
Location:  54.93°N, 9.84°E
Report Text: EKSB 241451Z 18009KT 150V210 9999 BKN035 13/09 Q1017
Loading
Personal Weather Stations






























Interactive Weather Map
Tropical Storm Tracking
New forecast layout! Learn more

10-Day Weather Forecast

Advertisements
Track Severe Weather on mobile